sensor_id;sensor_type;location;lat;lon;timestamp;P1;durP1;ratioP1;P2;durP2;ratioP2
37019;SDS011;22932;52.442;16.896;2022-08-18T05:10:40;32.20;;;29.30;;
37019;SDS011;22932;52.442;16.896;2022-08-18T05:13:09;30.40;;;27.50;;
37019;SDS011;22932;52.442;16.896;2022-08-18T05:15:41;29.80;;;27.50;;
37019;SDS011;22932;52.442;16.896;2022-08-18T05:18:11;31.50;;;28.60;;
37019;SDS011;22932;52.442;16.896;2022-08-18T05:20:40;30.50;;;28.00;;
37019;SDS011;22932;52.442;16.896;2022-08-18T05:23:09;32.60;;;30.20;;
37019;SDS011;22932;52.442;16.896;2022-08-18T05:25:39;32.40;;;29.80;;
37019;SDS011;22932;52.442;16.896;2022-08-18T05:28:08;31.90;;;29.00;;
37019;SDS011;22932;52.442;16.896;2022-08-18T05:30:39;32.20;;;29.50;;
37019;SDS011;22932;52.442;16.896;2022-08-18T05:33:09;30.20;;;27.70;;
37019;SDS011;22932;52.442;16.896;2022-08-18T05:35:40;29.30;;;26.70;;
37019;SDS011;22932;52.442;16.896;2022-08-18T05:41:06;32.10;;;29.00;;
37019;SDS011;22932;52.442;16.896;2022-08-18T05:43:38;30.80;;;28.20;;
37019;SDS011;22932;52.442;16.896;2022-08-18T05:46:09;29.90;;;27.60;;
37019;SDS011;22932;52.442;16.896;2022-08-18T05:48:39;30.00;;;27.60;;
37019;SDS011;22932;52.442;16.896;2022-08-18T05:51:11;31.20;;;28.40;;
37019;SDS011;22932;52.442;16.896;2022-08-18T05:53:45;28.80;;;26.50;;
37019;SDS011;22932;52.442;16.896;2022-08-18T05:56:33;30.60;;;28.00;;
37019;SDS011;22932;52.442;16.896;2022-08-18T05:59:15;30.50;;;27.70;;
37019;SDS011;22932;52.442;16.896;2022-08-18T06:01:50;30.10;;;27.60;;
37019;SDS011;22932;52.442;16.896;2022-08-18T06:04:27;30.30;;;27.40;;
37019;SDS011;22932;52.442;16.896;2022-08-18T06:07:03;30.50;;;27.20;;
37019;SDS011;22932;52.442;16.896;2022-08-18T06:09:37;30.20;;;27.10;;
37019;SDS011;22932;52.442;16.896;2022-08-18T06:12:12;28.30;;;25.90;;
37019;SDS011;22932;52.442;16.896;2022-08-18T06:14:49;27.00;;;24.80;;
37019;SDS011;22932;52.442;16.896;2022-08-18T06:17:24;29.50;;;26.70;;
37019;SDS011;22932;52.442;16.896;2022-08-18T06:20:08;27.60;;;25.20;;
37019;SDS011;22932;52.442;16.896;2022-08-18T06:22:49;27.80;;;25.30;;
37019;SDS011;22932;52.442;16.896;2022-08-18T06:25:29;29.00;;;26.30;;
37019;SDS011;22932;52.442;16.896;2022-08-18T06:28:12;26.60;;;24.40;;
37019;SDS011;22932;52.442;16.896;2022-08-18T06:30:47;26.50;;;24.20;;
37019;SDS011;22932;52.442;16.896;2022-08-18T06:33:32;26.90;;;24.60;;
37019;SDS011;22932;52.442;16.896;2022-08-18T06:36:09;27.30;;;24.60;;
37019;SDS011;22932;52.442;16.896;2022-08-18T06:38:59;28.60;;;26.00;;
37019;SDS011;22932;52.442;16.896;2022-08-18T06:41:36;26.60;;;24.60;;
37019;SDS011;22932;52.442;16.896;2022-08-18T06:44:10;26.30;;;24.30;;
37019;SDS011;22932;52.442;16.896;2022-08-18T06:46:45;26.10;;;23.50;;
37019;SDS011;22932;52.442;16.896;2022-08-18T06:49:20;25.80;;;23.70;;
37019;SDS011;22932;52.442;16.896;2022-08-18T06:57:24;24.90;;;22.60;;
37019;SDS011;22932;52.442;16.896;2022-08-18T06:59:59;24.70;;;22.50;;
37019;SDS011;22932;52.442;16.896;2022-08-18T07:02:43;25.40;;;22.90;;
37019;SDS011;22932;52.442;16.896;2022-08-18T07:05:21;24.10;;;22.20;;
37019;SDS011;22932;52.442;16.896;2022-08-18T07:08:11;25.10;;;23.10;;
37019;SDS011;22932;52.442;16.896;2022-08-18T07:10:44;24.00;;;22.10;;
37019;SDS011;22932;52.442;16.896;2022-08-18T07:13:20;25.50;;;23.60;;
37019;SDS011;22932;52.442;16.896;2022-08-18T07:15:52;23.80;;;21.80;;
37019;SDS011;22932;52.442;16.896;2022-08-18T07:18:41;22.70;;;20.70;;
37019;SDS011;22932;52.442;16.896;2022-08-18T07:21:10;24.00;;;22.30;;
37019;SDS011;22932;52.442;16.896;2022-08-18T07:23:58;23.50;;;21.60;;
37019;SDS011;22932;52.442;16.896;2022-08-18T07:26:32;23.00;;;21.00;;
37019;SDS011;22932;52.442;16.896;2022-08-18T07:29:28;29.60;;;21.70;;
37019;SDS011;22932;52.442;16.896;2022-08-18T07:32:02;23.70;;;21.30;;
37019;SDS011;22932;52.442;16.896;2022-08-18T07:34:37;22.70;;;20.50;;
37019;SDS011;22932;52.442;16.896;2022-08-18T07:37:19;23.60;;;21.00;;
37019;SDS011;22932;52.442;16.896;2022-08-18T07:39:53;24.30;;;22.00;;
37019;SDS011;22932;52.442;16.896;2022-08-18T07:42:30;24.60;;;22.30;;
37019;SDS011;22932;52.442;16.896;2022-08-18T07:45:08;25.40;;;21.80;;
37019;SDS011;22932;52.442;16.896;2022-08-18T07:47:48;23.60;;;21.30;;
37019;SDS011;22932;52.442;16.896;2022-08-18T07:50:20;27.90;;;22.10;;
37019;SDS011;22932;52.442;16.896;2022-08-18T07:53:00;25.20;;;20.40;;
37019;SDS011;22932;52.442;16.896;2022-08-18T07:55:35;22.00;;;19.40;;
37019;SDS011;22932;52.442;16.896;2022-08-18T07:58:12;29.80;;;19.30;;
37019;SDS011;22932;52.442;16.896;2022-08-18T08:00:50;20.00;;;16.50;;
37019;SDS011;22932;52.442;16.896;2022-08-18T08:03:28;21.40;;;19.40;;
37019;SDS011;22932;52.442;16.896;2022-08-18T08:06:07;21.10;;;19.50;;
37019;SDS011;22932;52.442;16.896;2022-08-18T08:08:44;20.70;;;18.40;;
37019;SDS011;22932;52.442;16.896;2022-08-18T08:11:23;20.50;;;18.80;;
37019;SDS011;22932;52.442;16.896;2022-08-18T08:14:06;20.20;;;18.10;;
37019;SDS011;22932;52.442;16.896;2022-08-18T08:16:45;19.00;;;17.30;;
37019;SDS011;22932;52.442;16.896;2022-08-18T08:19:27;21.20;;;19.50;;
37019;SDS011;22932;52.442;16.896;2022-08-18T08:22:18;21.70;;;19.40;;
37019;SDS011;22932;52.442;16.896;2022-08-18T08:24:53;18.20;;;16.70;;
37019;SDS011;22932;52.442;16.896;2022-08-18T08:27:29;22.10;;;17.90;;
37019;SDS011;22932;52.442;16.896;2022-08-18T08:30:11;20.70;;;18.40;;
37019;SDS011;22932;52.442;16.896;2022-08-18T08:32:45;19.40;;;17.70;;
37019;SDS011;22932;52.442;16.896;2022-08-18T08:35:26;18.10;;;16.70;;
37019;SDS011;22932;52.442;16.896;2022-08-18T08:38:05;21.80;;;17.90;;
37019;SDS011;22932;52.442;16.896;2022-08-18T08:40:42;19.30;;;17.30;;
37019;SDS011;22932;52.442;16.896;2022-08-18T08:43:20;19.20;;;17.30;;
37019;SDS011;22932;52.442;16.896;2022-08-18T08:46:00;17.70;;;15.90;;
37019;SDS011;22932;52.442;16.896;2022-08-18T08:48:35;17.50;;;15.80;;
37019;SDS011;22932;52.442;16.896;2022-08-18T08:51:13;19.90;;;15.70;;
37019;SDS011;22932;52.442;16.896;2022-08-18T08:53:53;16.40;;;14.80;;
37019;SDS011;22932;52.442;16.896;2022-08-18T08:56:28;15.10;;;13.70;;
37019;SDS011;22932;52.442;16.896;2022-08-18T08:59:02;14.20;;;13.00;;
37019;SDS011;22932;52.442;16.896;2022-08-18T09:01:42;50.30;;;17.00;;
37019;SDS011;22932;52.442;16.896;2022-08-18T09:04:29;14.30;;;12.90;;
37019;SDS011;22932;52.442;16.896;2022-08-18T09:09:49;16.20;;;14.70;;
37019;SDS011;22932;52.442;16.896;2022-08-18T09:12:41;15.10;;;13.60;;
37019;SDS011;22932;52.442;16.896;2022-08-18T09:15:31;15.70;;;13.10;;
37019;SDS011;22932;52.442;16.896;2022-08-18T09:18:17;14.60;;;13.00;;
37019;SDS011;22932;52.442;16.896;2022-08-18T09:21:03;15.70;;;14.10;;
37019;SDS011;22932;52.442;16.896;2022-08-18T09:23:44;14.80;;;13.60;;
37019;SDS011;22932;52.442;16.896;2022-08-18T09:26:24;15.40;;;13.80;;
37019;SDS011;22932;52.442;16.896;2022-08-18T09:29:13;15.00;;;13.90;;
37019;SDS011;22932;52.442;16.896;2022-08-18T09:31:48;14.80;;;13.40;;
37019;SDS011;22932;52.442;16.896;2022-08-18T09:34:57;21.60;;;14.30;;
37019;SDS011;22932;52.442;16.896;2022-08-18T09:37:40;15.40;;;14.10;;
37019;SDS011;22932;52.442;16.896;2022-08-18T09:40:37;13.80;;;12.60;;
37019;SDS011;22932;52.442;16.896;2022-08-18T09:43:35;13.40;;;12.30;;
37019;SDS011;22932;52.442;16.896;2022-08-18T09:46:05;12.00;;;11.00;;
37019;SDS011;22932;52.442;16.896;2022-08-18T09:48:36;12.70;;;11.60;;
37019;SDS011;22932;52.442;16.896;2022-08-18T09:54:12;10.90;;;10.10;;
37019;SDS011;22932;52.442;16.896;2022-08-18T10:05:40;13.30;;;10.90;;
37019;SDS011;22932;52.442;16.896;2022-08-18T10:08:31;12.30;;;11.30;;
37019;SDS011;22932;52.442;16.896;2022-08-18T10:11:19;12.00;;;10.90;;
37019;SDS011;22932;52.442;16.896;2022-08-18T10:17:00;11.90;;;10.70;;
37019;SDS011;22932;52.442;16.896;2022-08-18T10:19:41;12.00;;;10.50;;
37019;SDS011;22932;52.442;16.896;2022-08-18T22:34:51;16.90;;;15.30;;
37019;SDS011;22932;52.442;16.896;2022-08-18T22:37:21;15.70;;;14.30;;
37019;SDS011;22932;52.442;16.896;2022-08-18T22:39:53;14.40;;;13.20;;
37019;SDS011;22932;52.442;16.896;2022-08-18T22:42:26;15.10;;;13.90;;
37019;SDS011;22932;52.442;16.896;2022-08-18T22:44:57;16.90;;;14.90;;
37019;SDS011;22932;52.442;16.896;2022-08-18T22:47:27;15.90;;;14.50;;
37019;SDS011;22932;52.442;16.896;2022-08-18T22:49:56;15.50;;;14.30;;
37019;SDS011;22932;52.442;16.896;2022-08-18T22:52:26;14.90;;;13.40;;
37019;SDS011;22932;52.442;16.896;2022-08-18T22:54:59;15.90;;;14.60;;
37019;SDS011;22932;52.442;16.896;2022-08-18T22:57:33;15.10;;;13.70;;
37019;SDS011;22932;52.442;16.896;2022-08-18T23:00:03;15.50;;;14.10;;
37019;SDS011;22932;52.442;16.896;2022-08-18T23:02:35;15.30;;;14.10;;
37019;SDS011;22932;52.442;16.896;2022-08-18T23:05:04;15.40;;;13.80;;
37019;SDS011;22932;52.442;16.896;2022-08-18T23:07:35;14.60;;;13.50;;
37019;SDS011;22932;52.442;16.896;2022-08-18T23:10:05;16.20;;;14.70;;
37019;SDS011;22932;52.442;16.896;2022-08-18T23:12:36;15.80;;;14.20;;
37019;SDS011;22932;52.442;16.896;2022-08-18T23:15:06;16.10;;;14.90;;
37019;SDS011;22932;52.442;16.896;2022-08-18T23:17:37;16.10;;;14.70;;
37019;SDS011;22932;52.442;16.896;2022-08-18T23:20:10;16.10;;;14.50;;
37019;SDS011;22932;52.442;16.896;2022-08-18T23:22:40;17.40;;;15.70;;
37019;SDS011;22932;52.442;16.896;2022-08-18T23:25:09;16.20;;;14.80;;
37019;SDS011;22932;52.442;16.896;2022-08-18T23:27:39;15.80;;;14.40;;
37019;SDS011;22932;52.442;16.896;2022-08-18T23:30:09;16.20;;;14.70;;
37019;SDS011;22932;52.442;16.896;2022-08-18T23:32:39;15.70;;;14.30;;
37019;SDS011;22932;52.442;16.896;2022-08-18T23:35:09;15.10;;;13.80;;
37019;SDS011;22932;52.442;16.896;2022-08-18T23:37:38;16.80;;;15.20;;
37019;SDS011;22932;52.442;16.896;2022-08-18T23:40:08;16.60;;;15.00;;
37019;SDS011;22932;52.442;16.896;2022-08-18T23:42:40;15.30;;;13.90;;
37019;SDS011;22932;52.442;16.896;2022-08-18T23:45:10;15.70;;;14.30;;
37019;SDS011;22932;52.442;16.896;2022-08-18T23:47:39;15.80;;;14.50;;
37019;SDS011;22932;52.442;16.896;2022-08-18T23:50:09;16.50;;;15.00;;
37019;SDS011;22932;52.442;16.896;2022-08-18T23:52:39;16.20;;;14.80;;
37019;SDS011;22932;52.442;16.896;2022-08-18T23:55:10;16.60;;;15.10;;
37019;SDS011;22932;52.442;16.896;2022-08-18T23:57:40;16.20;;;14.80;;
